Time,TemperatureF,DewpointF,PressureIn,WindDirection,WindDirectionDegrees,WindSpeedMPH,WindSpeedGustMPH,Humidity,HourlyPrecipIn,Conditions,Clouds,dailyrainin,SoftwareType,DateUTC
2013-06-16 00:01:00,82.4,74.5,30.03,NNW,338,0.0,0.4,77,0.00,,,0.00,WUHU216HW,2013-06-16 04:01:00,
2013-06-16 00:02:00,82.4,74.5,30.03,NNW,338,0.0,0.4,77,0.00,,,0.00,WUHU216HW,2013-06-16 04:02:00,
2013-06-16 00:07:00,82.4,74.5,30.02,North,0,0.0,0.0,77,0.00,,,0.00,WUHU216HW,2013-06-16 04:07:00,
2013-06-16 00:12:00,82.3,74.3,30.02,NNE,23,0.0,0.0,77,0.00,,,0.00,WUHU216HW,2013-06-16 04:12:00,
2013-06-16 00:17:00,82.3,74.3,30.02,NNE,23,0.0,0.0,77,0.00,,,0.00,WUHU216HW,2013-06-16 04:17:00,
2013-06-16 00:22:00,82.1,74.2,30.03,NE,45,0.0,0.2,77,0.00,,,0.00,WUHU216HW,2013-06-16 04:22:00,
2013-06-16 00:27:00,82.1,74.6,30.03,ESE,113,0.4,0.9,78,0.00,,,0.00,WUHU216HW,2013-06-16 04:27:00,
2013-06-16 00:32:00,82.1,74.6,30.02,ESE,113,0.0,1.1,78,0.00,,,0.00,WUHU216HW,2013-06-16 04:32:00,
2013-06-16 00:37:00,82.1,74.6,30.02,ESE,113,0.0,1.1,78,0.00,,,0.00,WUHU216HW,2013-06-16 04:37:00,
2013-06-16 00:43:00,82.1,75.0,30.02,ESE,113,0.4,1.1,79,0.00,,,0.00,WUHU216HW,2013-06-16 04:43:00,
2013-06-16 00:48:00,81.9,74.8,30.03,ESE,113,0.0,0.4,79,0.00,,,0.00,WUHU216HW,2013-06-16 04:48:00,
2013-06-16 00:53:00,81.9,74.8,30.03,ESE,113,0.0,0.2,79,0.00,,,0.00,WUHU216HW,2013-06-16 04:53:00,
2013-06-16 00:58:00,81.7,74.6,30.03,ESE,113,0.0,0.0,79,0.00,,,0.00,WUHU216HW,2013-06-16 04:58:00,
2013-06-16 01:03:00,81.7,74.6,30.03,ESE,113,0.0,0.0,79,0.00,,,0.00,WUHU216HW,2013-06-16 05:03:00,
2013-06-16 01:08:00,81.7,74.6,30.02,ESE,113,0.0,0.0,79,0.00,,,0.00,WUHU216HW,2013-06-16 05:08:00,
2013-06-16 01:13:00,81.5,74.4,30.02,ESE,113,0.0,0.0,79,0.00,,,0.00,WUHU216HW,2013-06-16 05:13:00,
2013-06-16 01:18:00,81.5,74.9,30.02,ESE,113,0.0,0.4,80,0.00,,,0.00,WUHU216HW,2013-06-16 05:18:00,
2013-06-16 01:19:00,81.5,74.9,30.02,ESE,113,0.0,0.0,80,0.00,,,0.00,WUHU216HW,2013-06-16 05:19:00,
2013-06-16 01:23:00,81.5,74.9,30.02,ESE,113,0.0,0.2,80,0.00,,,0.00,WUHU216HW,2013-06-16 05:23:00,
2013-06-16 01:49:00,81.2,74.5,30.02,ESE,113,0.7,0.7,80,0.00,,,0.00,WUHU216HW,2013-06-16 05:49:00,
2013-06-16 01:50:00,81.2,74.5,30.02,ESE,113,0.7,0.7,80,0.00,,,0.00,WUHU216HW,2013-06-16 05:50:00,
2013-06-16 01:55:00,81.2,74.5,30.02,ESE,113,0.7,0.7,80,0.00,,,0.00,WUHU216HW,2013-06-16 05:55:00,
2013-06-16 02:00:00,81.0,74.3,30.02,ESE,113,0.4,0.4,80,0.00,,,0.00,WUHU216HW,2013-06-16 06:00:00,
2013-06-16 02:06:00,81.0,74.3,30.02,ESE,113,0.0,0.7,80,0.00,,,0.00,WUHU216HW,2013-06-16 06:06:00,
2013-06-16 02:11:00,81.0,74.3,30.01,ESE,113,0.0,0.7,80,0.00,,,0.00,WUHU216HW,2013-06-16 06:11:00,
2013-06-16 02:16:00,80.8,74.2,30.01,ESE,113,0.0,0.0,80,0.00,,,0.00,WUHU216HW,2013-06-16 06:16:00,
2013-06-16 02:21:00,80.8,74.2,30.02,ESE,113,0.2,0.4,80,0.00,,,0.00,WUHU216HW,2013-06-16 06:21:00,
2013-06-16 02:26:00,80.6,74.0,30.02,ESE,113,0.0,0.7,80,0.00,,,0.00,WUHU216HW,2013-06-16 06:26:00,
2013-06-16 02:31:00,80.6,74.0,30.02,SE,135,0.0,0.7,80,0.00,,,0.00,WUHU216HW,2013-06-16 06:31:00,
2013-06-16 02:36:00,80.6,74.0,30.01,SE,135,1.1,1.1,80,0.00,,,0.00,WUHU216HW,2013-06-16 06:36:00,
2013-06-16 02:41:00,80.6,74.0,30.01,SE,135,0.0,1.1,80,0.00,,,0.00,WUHU216HW,2013-06-16 06:41:00,
2013-06-16 02:47:00,80.6,74.0,30.01,SE,135,0.2,0.4,80,0.00,,,0.00,WUHU216HW,2013-06-16 06:47:00,
2013-06-16 02:52:00,80.6,74.4,30.01,SE,135,0.4,1.1,81,0.00,,,0.00,WUHU216HW,2013-06-16 06:52:00,
2013-06-16 02:57:00,80.6,74.4,30.00,ESE,113,0.0,1.1,81,0.00,,,0.00,WUHU216HW,2013-06-16 06:57:00,
2013-06-16 03:02:00,80.5,74.2,30.00,ESE,113,0.0,0.9,81,0.00,,,0.00,WUHU216HW,2013-06-16 07:02:00,
2013-06-16 03:07:00,80.3,74.0,30.01,ESE,113,0.0,0.9,81,0.00,,,0.00,WUHU216HW,2013-06-16 07:07:00,
2013-06-16 03:12:00,80.3,74.0,30.00,ESE,113,0.0,0.4,81,0.00,,,0.00,WUHU216HW,2013-06-16 07:12:00,
2013-06-16 03:17:00,80.3,74.0,30.00,ESE,113,0.0,0.0,81,0.00,,,0.00,WUHU216HW,2013-06-16 07:17:00,
2013-06-16 03:22:00,80.3,74.0,30.00,ESE,113,0.0,0.0,81,0.00,,,0.00,WUHU216HW,2013-06-16 07:22:00,
2013-06-16 03:27:00,80.3,74.0,30.00,ESE,113,0.0,0.0,81,0.00,,,0.00,WUHU216HW,2013-06-16 07:27:00,
2013-06-16 03:33:00,80.1,74.2,30.00,ESE,113,0.4,0.4,82,0.00,,,0.00,WUHU216HW,2013-06-16 07:33:00,
2013-06-16 03:38:00,80.1,74.2,29.99,ESE,113,0.0,0.4,82,0.00,,,0.00,WUHU216HW,2013-06-16 07:38:00,
2013-06-16 03:43:00,79.9,74.0,29.99,ESE,113,0.0,0.4,82,0.00,,,0.00,WUHU216HW,2013-06-16 07:43:00,
2013-06-16 03:48:00,79.9,74.0,29.99,ESE,113,0.0,0.2,82,0.00,,,0.00,WUHU216HW,2013-06-16 07:48:00,
2013-06-16 03:53:00,79.9,74.0,29.99,ESE,113,0.0,0.0,82,0.00,,,0.00,WUHU216HW,2013-06-16 07:53:00,
2013-06-16 03:58:00,79.9,74.0,30.00,ESE,113,0.0,0.0,82,0.00,,,0.00,WUHU216HW,2013-06-16 07:58:00,
2013-06-16 04:03:00,79.9,74.4,29.99,ESE,113,0.0,0.0,83,0.00,,,0.00,WUHU216HW,2013-06-16 08:03:00,
2013-06-16 04:08:00,79.9,74.4,29.99,ESE,113,0.0,0.0,83,0.00,,,0.00,WUHU216HW,2013-06-16 08:08:00,
2013-06-16 04:13:00,79.9,74.4,30.00,ESE,113,0.0,0.0,83,0.00,,,0.00,WUHU216HW,2013-06-16 08:13:00,
2013-06-16 04:19:00,79.7,74.2,29.99,ESE,113,0.0,0.2,83,0.00,,,0.00,WUHU216HW,2013-06-16 08:19:00,
2013-06-16 04:24:00,79.6,74.0,29.99,ESE,113,0.0,0.4,83,0.00,,,0.00,WUHU216HW,2013-06-16 08:24:00,
2013-06-16 04:29:00,79.6,74.0,29.99,ESE,113,0.4,0.4,83,0.00,,,0.00,WUHU216HW,2013-06-16 08:29:00,
2013-06-16 04:34:00,79.6,74.0,29.99,ESE,113,0.9,0.9,83,0.00,,,0.00,WUHU216HW,2013-06-16 08:34:00,
2013-06-16 04:39:00,79.6,74.0,29.99,ESE,113,0.0,0.9,83,0.00,,,0.00,WUHU216HW,2013-06-16 08:39:00,
2013-06-16 04:44:00,79.6,74.0,29.99,ESE,113,0.0,0.7,83,0.00,,,0.00,WUHU216HW,2013-06-16 08:44:00,
2013-06-16 04:49:00,79.4,73.8,29.99,ESE,113,0.0,0.4,83,0.00,,,0.00,WUHU216HW,2013-06-16 08:49:00,
2013-06-16 04:54:00,79.4,73.8,29.99,ESE,113,0.0,0.4,83,0.00,,,0.00,WUHU216HW,2013-06-16 08:54:00,
2013-06-16 05:00:00,79.4,73.8,30.00,ESE,113,0.0,0.0,83,0.00,,,0.00,WUHU216HW,2013-06-16 09:00:00,
2013-06-16 05:05:00,79.2,73.6,30.00,ESE,113,0.4,0.4,83,0.00,,,0.00,WUHU216HW,2013-06-16 09:05:00,
2013-06-16 05:10:00,79.2,73.6,30.00,ESE,113,0.0,0.4,83,0.00,,,0.00,WUHU216HW,2013-06-16 09:10:00,
2013-06-16 05:15:00,79.2,73.6,29.99,ESE,113,0.0,0.0,83,0.00,,,0.00,WUHU216HW,2013-06-16 09:15:00,
2013-06-16 05:20:00,79.2,73.6,29.99,ESE,113,0.0,0.0,83,0.00,,,0.00,WUHU216HW,2013-06-16 09:20:00,
2013-06-16 05:46:00,78.8,73.6,30.01,ESE,113,0.0,0.0,84,0.00,,,0.00,WUHU216HW,2013-06-16 09:46:00,
2013-06-16 05:51:00,78.8,73.6,30.01,ESE,113,0.2,0.4,84,0.00,,,0.00,WUHU216HW,2013-06-16 09:51:00,
2013-06-16 05:56:00,78.8,73.6,30.01,ESE,113,0.0,0.4,84,0.00,,,0.00,WUHU216HW,2013-06-16 09:56:00,
2013-06-16 06:01:00,78.7,73.4,30.02,ESE,113,0.0,0.4,84,0.00,,,0.00,WUHU216HW,2013-06-16 10:01:00,
2013-06-16 06:06:00,78.7,73.4,30.01,ESE,113,0.0,0.0,84,0.00,,,0.00,WUHU216HW,2013-06-16 10:06:00,
2013-06-16 06:11:00,78.7,73.4,30.01,ESE,113,0.4,0.7,84,0.00,,,0.00,WUHU216HW,2013-06-16 10:11:00,
2013-06-16 06:16:00,78.7,73.4,30.02,ESE,113,0.4,0.7,84,0.00,,,0.00,WUHU216HW,2013-06-16 10:16:00,
2013-06-16 06:21:00,78.7,73.4,30.02,ESE,113,0.0,0.4,84,0.00,,,0.00,WUHU216HW,2013-06-16 10:21:00,
2013-06-16 06:27:00,78.7,73.4,30.02,ESE,113,0.0,0.4,84,0.00,,,0.00,WUHU216HW,2013-06-16 10:27:00,
2013-06-16 06:32:00,78.5,73.3,30.02,ESE,113,0.0,0.4,84,0.00,,,0.00,WUHU216HW,2013-06-16 10:32:00,
2013-06-16 06:37:00,78.5,73.3,30.02,ESE,113,0.0,0.0,84,0.00,,,0.00,WUHU216HW,2013-06-16 10:37:00,
2013-06-16 06:42:00,78.5,73.3,30.02,ESE,113,0.0,0.0,84,0.00,,,0.00,WUHU216HW,2013-06-16 10:42:00,
2013-06-16 06:47:00,78.3,73.1,30.02,ESE,113,0.7,0.7,84,0.00,,,0.00,WUHU216HW,2013-06-16 10:47:00,
2013-06-16 06:52:00,78.3,73.4,30.02,ESE,113,0.2,0.7,85,0.00,,,0.00,WUHU216HW,2013-06-16 10:52:00,
2013-06-16 06:57:00,78.5,73.6,30.02,ESE,113,0.0,0.4,85,0.00,,,0.00,WUHU216HW,2013-06-16 10:57:00,
2013-06-16 07:02:00,78.3,73.4,30.02,ESE,113,0.0,0.0,85,0.00,,,0.00,WUHU216HW,2013-06-16 11:02:00,
2013-06-16 07:08:00,78.3,73.4,30.02,ESE,113,0.0,0.0,85,0.00,,,0.00,WUHU216HW,2013-06-16 11:08:00,
2013-06-16 07:13:00,78.3,73.4,30.02,ESE,113,0.0,0.4,85,0.00,,,0.00,WUHU216HW,2013-06-16 11:13:00,
2013-06-16 07:18:00,78.3,73.4,30.02,ESE,113,0.0,0.4,85,0.00,,,0.00,WUHU216HW,2013-06-16 11:18:00,
2013-06-16 07:23:00,78.3,73.4,30.02,ESE,113,0.0,0.4,85,0.00,,,0.00,WUHU216HW,2013-06-16 11:23:00,
2013-06-16 07:28:00,78.3,73.4,30.03,East,90,0.2,0.7,85,0.00,,,0.00,WUHU216HW,2013-06-16 11:28:00,
2013-06-16 07:33:00,78.3,73.4,30.03,ESE,113,0.0,0.9,85,0.00,,,0.00,WUHU216HW,2013-06-16 11:33:00,
2013-06-16 07:38:00,78.3,73.1,30.02,ESE,113,1.1,2.0,84,0.00,,,0.00,WUHU216HW,2013-06-16 11:38:00,
2013-06-16 07:43:00,78.5,73.3,30.02,East,90,0.4,2.0,84,0.00,,,0.00,WUHU216HW,2013-06-16 11:43:00,
2013-06-16 07:48:00,78.5,73.3,30.03,ESE,113,0.4,1.8,84,0.00,,,0.00,WUHU216HW,2013-06-16 11:48:00,
2013-06-16 07:53:00,78.7,73.4,30.03,ESE,113,0.2,1.8,84,0.00,,,0.00,WUHU216HW,2013-06-16 11:53:00,
2013-06-16 07:58:00,78.8,73.6,30.03,ESE,113,1.1,1.8,84,0.00,,,0.00,WUHU216HW,2013-06-16 11:58:00,
2013-06-16 08:04:00,78.8,73.6,30.03,ESE,113,0.2,1.1,84,0.00,,,0.00,WUHU216HW,2013-06-16 12:04:00,
2013-06-16 08:09:00,78.8,73.6,30.03,ESE,113,0.7,1.1,84,0.00,,,0.00,WUHU216HW,2013-06-16 12:09:00,
2013-06-16 08:14:00,79.0,73.5,30.04,SE,135,1.1,2.0,83,0.00,,,0.00,WUHU216HW,2013-06-16 12:14:00,
2013-06-16 08:19:00,79.2,73.6,30.04,SSE,158,0.0,2.0,83,0.00,,,0.00,WUHU216HW,2013-06-16 12:19:00,
2013-06-16 08:24:00,79.2,73.6,30.04,SE,135,0.4,1.1,83,0.00,,,0.00,WUHU216HW,2013-06-16 12:24:00,
2013-06-16 08:29:00,79.2,73.3,30.04,SE,135,0.4,1.1,82,0.00,,,0.00,WUHU216HW,2013-06-16 12:29:00,
2013-06-16 08:34:00,79.4,73.5,30.04,SE,135,0.2,1.3,82,0.00,,,0.00,WUHU216HW,2013-06-16 12:34:00,
2013-06-16 08:39:00,79.6,73.3,30.04,SE,135,0.4,1.3,81,0.00,,,0.00,WUHU216HW,2013-06-16 12:39:00,
2013-06-16 08:44:00,79.7,73.5,30.04,SE,135,0.0,0.9,81,0.00,,,0.00,WUHU216HW,2013-06-16 12:44:00,
2013-06-16 08:50:00,80.1,73.8,30.04,ESE,113,2.0,2.0,81,0.00,,,0.00,WUHU216HW,2013-06-16 12:50:00,
2013-06-16 08:55:00,80.3,74.0,30.04,SE,135,0.0,2.0,81,0.00,,,0.00,WUHU216HW,2013-06-16 12:55:00,
2013-06-16 09:00:00,80.6,74.4,30.04,SE,135,0.9,1.1,81,0.00,,,0.00,WUHU216HW,2013-06-16 13:00:00,
2013-06-16 09:05:00,81.0,74.7,30.04,ENE,68,0.4,1.1,81,0.00,,,0.00,WUHU216HW,2013-06-16 13:05:00,
2013-06-16 09:10:00,81.4,75.1,30.05,ENE,68,0.4,2.2,81,0.00,,,0.00,WUHU216HW,2013-06-16 13:10:00,
2013-06-16 09:15:00,81.9,75.6,30.05,East,90,1.8,2.2,81,0.00,,,0.00,WUHU216HW,2013-06-16 13:15:00,
2013-06-16 09:20:00,82.4,75.8,30.05,ESE,113,2.0,2.2,80,0.00,,,0.00,WUHU216HW,2013-06-16 13:20:00,
2013-06-16 09:25:00,82.8,75.7,30.05,East,90,2.0,2.5,79,0.00,,,0.00,WUHU216HW,2013-06-16 13:25:00,
2013-06-16 09:31:00,83.3,75.8,30.05,SE,135,0.4,2.5,78,0.00,,,0.00,WUHU216HW,2013-06-16 13:31:00,
2013-06-16 09:36:00,83.5,75.5,30.05,ENE,68,1.3,2.5,77,0.00,,,0.00,WUHU216HW,2013-06-16 13:36:00,
2013-06-16 09:41:00,83.9,75.9,30.05,NE,45,0.4,2.0,77,0.00,,,0.00,WUHU216HW,2013-06-16 13:41:00,
2013-06-16 09:46:00,84.2,76.2,30.05,ESE,113,1.1,3.1,77,0.00,,,0.00,WUHU216HW,2013-06-16 13:46:00,
2013-06-16 09:51:00,84.8,76.3,30.05,ESE,113,3.8,3.8,76,0.00,,,0.00,WUHU216HW,2013-06-16 13:51:00,
2013-06-16 09:56:00,85.1,76.3,30.05,North,0,0.4,3.8,75,0.00,,,0.00,WUHU216HW,2013-06-16 13:56:00,
2013-06-16 10:01:00,85.5,76.7,30.05,SE,135,0.4,3.8,75,0.00,,,0.00,WUHU216HW,2013-06-16 14:01:00,
2013-06-16 10:06:00,85.7,76.1,30.05,ENE,68,1.8,2.7,73,0.00,,,0.00,WUHU216HW,2013-06-16 14:06:00,
2013-06-16 10:11:00,86.0,76.4,30.05,ESE,113,3.1,3.1,73,0.00,,,0.00,WUHU216HW,2013-06-16 14:11:00,
2013-06-16 10:16:00,86.2,76.6,30.05,ESE,113,0.0,3.1,73,0.00,,,0.00,WUHU216HW,2013-06-16 14:16:00,
2013-06-16 10:22:00,86.2,76.6,30.05,ESE,113,1.6,3.1,73,0.00,,,0.00,WUHU216HW,2013-06-16 14:22:00,
2013-06-16 10:27:00,86.2,77.0,30.05,North,0,0.0,3.1,74,0.00,,,0.00,WUHU216HW,2013-06-16 14:27:00,
2013-06-16 10:32:00,86.4,76.8,30.05,SE,135,1.8,1.8,73,0.00,,,0.00,WUHU216HW,2013-06-16 14:32:00,
2013-06-16 10:37:00,86.9,76.9,30.05,SE,135,1.1,1.8,72,0.00,,,0.00,WUHU216HW,2013-06-16 14:37:00,
2013-06-16 10:42:00,87.1,77.1,30.05,SE,135,2.9,2.9,72,0.00,,,0.00,WUHU216HW,2013-06-16 14:42:00,
2013-06-16 10:47:00,87.3,77.2,30.04,ESE,113,1.8,2.9,72,0.00,,,0.00,WUHU216HW,2013-06-16 14:47:00,
2013-06-16 10:52:00,87.3,77.2,30.04,SE,135,2.9,4.3,72,0.00,,,0.00,WUHU216HW,2013-06-16 14:52:00,
2013-06-16 10:57:00,88.0,77.5,30.04,SE,135,0.7,4.3,71,0.00,,,0.00,WUHU216HW,2013-06-16 14:57:00,
2013-06-16 11:02:00,87.8,77.3,30.04,SSE,158,1.6,2.7,71,0.00,,,0.00,WUHU216HW,2013-06-16 15:02:00,
2013-06-16 11:07:00,88.0,77.5,30.04,SSE,158,1.8,2.5,71,0.00,,,0.00,WUHU216HW,2013-06-16 15:07:00,
2013-06-16 11:13:00,88.4,77.0,30.04,SE,135,0.7,3.4,69,0.00,,,0.00,WUHU216HW,2013-06-16 15:13:00,
2013-06-16 11:18:00,88.6,76.7,30.04,ESE,113,2.9,2.9,68,0.00,,,0.00,WUHU216HW,2013-06-16 15:18:00,
2013-06-16 11:23:00,88.6,77.1,30.04,SSE,158,1.1,2.9,69,0.00,,,0.00,WUHU216HW,2013-06-16 15:23:00,
2013-06-16 11:28:00,88.7,77.3,30.04,SE,135,0.0,1.8,69,0.00,,,0.00,WUHU216HW,2013-06-16 15:28:00,
2013-06-16 11:33:00,88.6,76.7,30.04,ESE,113,3.4,3.4,68,0.00,,,0.00,WUHU216HW,2013-06-16 15:33:00,
2013-06-16 11:38:00,88.4,76.5,30.04,ESE,113,1.6,3.4,68,0.00,,,0.00,WUHU216HW,2013-06-16 15:38:00,
2013-06-16 11:43:00,88.7,76.4,30.04,SE,135,1.8,3.4,67,0.00,,,0.00,WUHU216HW,2013-06-16 15:43:00,
2013-06-16 11:48:00,89.3,76.0,30.04,SSE,158,2.2,3.4,65,0.00,,,0.00,WUHU216HW,2013-06-16 15:48:00,
2013-06-16 11:54:00,89.6,76.3,30.04,NE,45,1.6,2.9,65,0.00,,,0.00,WUHU216HW,2013-06-16 15:54:00,
2013-06-16 11:59:00,89.6,76.8,30.04,NNW,338,2.2,2.7,66,0.00,,,0.00,WUHU216HW,2013-06-16 15:59:00,
2013-06-16 12:04:00,89.6,76.8,30.04,SE,135,2.5,2.7,66,0.00,,,0.00,WUHU216HW,2013-06-16 16:04:00,
2013-06-16 12:09:00,90.4,77.0,30.04,SE,135,1.1,2.5,65,0.00,,,0.00,WUHU216HW,2013-06-16 16:09:00,
2013-06-16 12:14:00,91.3,77.8,30.04,SSE,158,2.5,2.9,65,0.00,,,0.00,WUHU216HW,2013-06-16 16:14:00,
2013-06-16 12:19:00,91.6,77.7,30.04,South,180,2.5,3.4,64,0.00,,,0.00,WUHU216HW,2013-06-16 16:19:00,
2013-06-16 12:24:00,92.0,78.0,30.04,SSE,158,1.8,3.4,64,0.00,,,0.00,WUHU216HW,2013-06-16 16:24:00,
2013-06-16 12:29:00,92.3,77.4,30.04,ESE,113,0.7,2.5,62,0.00,,,0.00,WUHU216HW,2013-06-16 16:29:00,
2013-06-16 12:34:00,92.7,76.3,30.04,SSW,203,1.8,3.8,59,0.00,,,0.00,WUHU216HW,2013-06-16 16:34:00,
2013-06-16 12:40:00,93.1,78.1,30.04,SSE,158,0.4,3.8,62,0.00,,,0.00,WUHU216HW,2013-06-16 16:40:00,
2013-06-16 12:45:00,93.2,78.3,30.04,ESE,113,0.9,2.7,62,0.00,,,0.00,WUHU216HW,2013-06-16 16:45:00,
2013-06-16 12:50:00,93.4,77.1,30.04,SE,135,1.6,5.8,59,0.00,,,0.00,WUHU216HW,2013-06-16 16:50:00,
2013-06-16 12:55:00,93.2,77.9,30.04,SE,135,1.3,5.8,61,0.00,,,0.00,WUHU216HW,2013-06-16 16:55:00,
2013-06-16 13:00:00,93.6,78.7,30.04,SW,225,0.2,2.7,62,0.00,,,0.00,WUHU216HW,2013-06-16 17:00:00,
2013-06-16 13:05:00,93.6,78.7,30.04,WSW,248,2.2,2.2,62,0.00,,,0.00,WUHU216HW,2013-06-16 17:05:00,
2013-06-16 13:10:00,93.2,78.9,30.04,WSW,248,1.1,2.2,63,0.00,,,0.00,WUHU216HW,2013-06-16 17:10:00,
2013-06-16 13:15:00,92.9,78.9,30.04,SSW,203,2.5,2.5,64,0.00,,,0.00,WUHU216HW,2013-06-16 17:15:00,
2013-06-16 13:21:00,93.1,79.1,30.04,SSE,158,1.8,2.5,64,0.00,,,0.00,WUHU216HW,2013-06-16 17:21:00,
2013-06-16 13:26:00,92.7,78.8,30.04,WSW,248,0.4,3.8,64,0.00,,,0.00,WUHU216HW,2013-06-16 17:26:00,
2013-06-16 13:31:00,92.0,78.5,30.04,WSW,248,2.5,3.8,65,0.00,,,0.00,WUHU216HW,2013-06-16 17:31:00,
2013-06-16 13:36:00,91.3,78.2,30.04,WSW,248,1.6,3.4,66,0.00,,,0.00,WUHU216HW,2013-06-16 17:36:00,
2013-06-16 13:41:00,90.9,78.0,30.04,WNW,293,1.1,3.4,66,0.00,,,0.00,WUHU216HW,2013-06-16 17:41:00,
2013-06-16 13:46:00,91.1,78.6,30.04,SW,225,1.6,3.1,67,0.00,,,0.00,WUHU216HW,2013-06-16 17:46:00,
2013-06-16 13:51:00,92.0,79.4,30.04,North,0,1.1,3.1,67,0.00,,,0.00,WUHU216HW,2013-06-16 17:51:00,
2013-06-16 13:56:00,92.5,79.9,30.04,NW,315,2.0,2.5,67,0.00,,,0.00,WUHU216HW,2013-06-16 17:56:00,
2013-06-16 14:01:00,92.7,79.7,30.04,SSW,203,1.8,2.5,66,0.00,,,0.00,WUHU216HW,2013-06-16 18:01:00,
2013-06-16 14:06:00,92.7,79.7,30.04,West,270,0.2,2.0,66,0.00,,,0.00,WUHU216HW,2013-06-16 18:06:00,
2013-06-16 14:11:00,93.1,80.0,30.03,SW,225,1.6,2.0,66,0.00,,,0.00,WUHU216HW,2013-06-16 18:11:00,
2013-06-16 14:17:00,93.2,79.7,30.03,SW,225,2.5,3.8,65,0.00,,,0.00,WUHU216HW,2013-06-16 18:17:00,
2013-06-16 14:22:00,93.1,79.1,30.03,North,0,2.2,3.8,64,0.00,,,0.00,WUHU216HW,2013-06-16 18:22:00,
2013-06-16 14:27:00,92.7,78.8,30.03,WSW,248,3.6,3.6,64,0.00,,,0.00,WUHU216HW,2013-06-16 18:27:00,
2013-06-16 14:32:00,92.5,79.0,30.03,WNW,293,1.6,4.0,65,0.00,,,0.00,WUHU216HW,2013-06-16 18:32:00,
2013-06-16 14:37:00,92.9,79.4,30.03,SW,225,1.1,4.0,65,0.00,,,0.00,WUHU216HW,2013-06-16 18:37:00,
2013-06-16 14:42:00,93.6,80.6,30.03,SSW,203,0.9,3.1,66,0.00,,,0.00,WUHU216HW,2013-06-16 18:42:00,
2013-06-16 14:47:00,94.3,81.2,30.03,SW,225,1.1,3.1,66,0.00,,,0.00,WUHU216HW,2013-06-16 18:47:00,
2013-06-16 14:52:00,94.1,80.1,30.03,SW,225,0.9,3.4,64,0.00,,,0.00,WUHU216HW,2013-06-16 18:52:00,
2013-06-16 14:57:00,94.3,80.3,30.02,SSW,203,2.5,3.4,64,0.00,,,0.00,WUHU216HW,2013-06-16 18:57:00,
2013-06-16 15:03:00,94.3,80.3,30.02,SSW,203,1.8,3.4,64,0.00,,,0.00,WUHU216HW,2013-06-16 19:03:00,
2013-06-16 15:08:00,94.7,80.1,30.02,West,270,2.0,3.4,63,0.00,,,0.00,WUHU216HW,2013-06-16 19:08:00,
2013-06-16 15:13:00,94.1,79.7,30.02,South,180,2.2,3.4,63,0.00,,,0.00,WUHU216HW,2013-06-16 19:13:00,
2013-06-16 15:18:00,94.3,79.7,30.02,SW,225,2.5,3.6,63,0.00,,,0.00,WUHU216HW,2013-06-16 19:18:00,
2013-06-16 15:23:00,94.3,80.3,30.02,NW,315,2.0,3.6,64,0.00,,,0.00,WUHU216HW,2013-06-16 19:23:00,
2013-06-16 15:28:00,94.9,80.3,30.02,WSW,248,0.9,2.5,63,0.00,,,0.00,WUHU216HW,2013-06-16 19:28:00,
2013-06-16 15:33:00,94.7,80.1,30.02,SW,225,1.8,6.0,63,0.00,,,0.00,WUHU216HW,2013-06-16 19:33:00,
2013-06-16 15:38:00,94.1,79.1,30.01,South,180,1.1,6.0,62,0.00,,,0.00,WUHU216HW,2013-06-16 19:38:00,
2013-06-16 15:44:00,93.8,79.7,30.01,SW,225,1.3,3.4,64,0.00,,,0.00,WUHU216HW,2013-06-16 19:44:00,
2013-06-16 15:49:00,94.0,79.9,30.01,South,180,2.5,2.5,64,0.00,,,0.00,WUHU216HW,2013-06-16 19:49:00,
2013-06-16 15:54:00,94.1,79.7,30.01,SE,135,1.1,2.5,63,0.00,,,0.00,WUHU216HW,2013-06-16 19:54:00,
2013-06-16 15:59:00,93.6,79.1,30.00,SSW,203,1.1,1.8,63,0.00,,,0.00,WUHU216HW,2013-06-16 19:59:00,
2013-06-16 16:04:00,93.6,79.1,30.00,South,180,0.7,4.5,63,0.00,,,0.00,WUHU216HW,2013-06-16 20:04:00,
2013-06-16 16:09:00,93.4,78.9,30.00,SW,225,1.3,4.5,63,0.00,,,0.00,WUHU216HW,2013-06-16 20:09:00,
2013-06-16 16:14:00,93.1,78.7,30.00,South,180,3.8,4.3,63,0.00,,,0.00,WUHU216HW,2013-06-16 20:14:00,
2013-06-16 16:19:00,93.2,79.3,30.01,SSW,203,2.7,3.8,64,0.00,,,0.00,WUHU216HW,2013-06-16 20:19:00,
2013-06-16 16:24:00,93.4,78.9,30.00,South,180,2.5,2.7,63,0.00,,,0.00,WUHU216HW,2013-06-16 20:24:00,
2013-06-16 16:30:00,93.1,78.7,30.00,South,180,0.4,2.7,63,0.00,,,0.00,WUHU216HW,2013-06-16 20:30:00,
2013-06-16 16:35:00,93.1,79.1,30.00,South,180,2.0,2.7,64,0.00,,,0.00,WUHU216HW,2013-06-16 20:35:00,
2013-06-16 16:40:00,93.1,79.1,30.00,SW,225,0.4,2.7,64,0.00,,,0.00,WUHU216HW,2013-06-16 20:40:00,
2013-06-16 16:43:00,93.2,79.3,29.99,WSW,248,1.1,1.1,64,0.00,,,0.00,WUHU216HW,2013-06-16 20:43:00,
2013-06-16 16:45:00,93.2,79.3,29.99,WSW,248,1.1,2.7,64,0.00,,,0.00,WUHU216HW,2013-06-16 20:45:00,
2013-06-16 16:50:00,93.2,79.3,29.99,WSW,248,1.1,1.8,64,0.00,,,0.00,WUHU216HW,2013-06-16 20:50:00,
2013-06-16 17:01:00,92.7,78.3,30.00,NW,315,2.5,2.5,63,0.00,,,0.00,WUHU216HW,2013-06-16 21:01:00,
2013-06-16 17:06:00,92.3,78.4,30.00,SW,225,1.8,2.9,64,0.00,,,0.00,WUHU216HW,2013-06-16 21:06:00,
2013-06-16 17:11:00,92.5,78.6,29.99,SSW,203,1.3,2.9,64,0.00,,,0.00,WUHU216HW,2013-06-16 21:11:00,
2013-06-16 17:16:00,92.5,78.1,30.00,NNW,338,0.9,2.7,63,0.00,,,0.00,WUHU216HW,2013-06-16 21:16:00,
2013-06-16 17:21:00,92.0,78.0,29.99,West,270,3.1,3.1,64,0.00,,,0.00,WUHU216HW,2013-06-16 21:21:00,
2013-06-16 17:26:00,91.6,77.2,29.99,West,270,1.1,3.1,63,0.00,,,0.00,WUHU216HW,2013-06-16 21:26:00,
2013-06-16 17:31:00,91.4,77.5,29.99,SW,225,4.9,4.9,64,0.00,,,0.00,WUHU216HW,2013-06-16 21:31:00,
2013-06-16 17:36:00,91.3,77.3,29.99,SW,225,1.8,4.9,64,0.00,,,0.00,WUHU216HW,2013-06-16 21:36:00,
2013-06-16 17:42:00,91.4,77.5,29.99,WSW,248,0.7,2.5,64,0.00,,,0.00,WUHU216HW,2013-06-16 21:42:00,
2013-06-16 17:47:00,91.3,77.3,29.99,SW,225,3.6,3.6,64,0.00,,,0.00,WUHU216HW,2013-06-16 21:47:00,
2013-06-16 17:52:00,91.1,77.1,29.99,West,270,0.7,3.6,64,0.00,,,0.00,WUHU216HW,2013-06-16 21:52:00,
2013-06-16 17:57:00,91.1,77.1,29.99,West,270,3.4,3.4,64,0.00,,,0.00,WUHU216HW,2013-06-16 21:57:00,
2013-06-16 18:02:00,91.1,77.1,29.99,WSW,248,0.7,3.4,64,0.00,,,0.00,WUHU216HW,2013-06-16 22:02:00,
2013-06-16 18:07:00,91.3,77.3,29.99,WSW,248,1.1,2.2,64,0.00,,,0.00,WUHU216HW,2013-06-16 22:07:00,
2013-06-16 18:12:00,91.1,77.1,29.99,WSW,248,0.9,3.4,64,0.00,,,0.00,WUHU216HW,2013-06-16 22:12:00,
2013-06-16 18:17:00,90.5,77.1,29.99,WNW,293,1.1,3.4,65,0.00,,,0.00,WUHU216HW,2013-06-16 22:17:00,
2013-06-16 18:22:00,90.0,76.7,29.98,West,270,1.6,1.8,65,0.00,,,0.00,WUHU216HW,2013-06-16 22:22:00,
2013-06-16 18:27:00,89.6,76.8,29.99,West,270,1.8,2.0,66,0.00,,,0.00,WUHU216HW,2013-06-16 22:27:00,
2013-06-16 18:33:00,89.3,77.0,29.99,SSW,203,1.3,3.4,67,0.00,,,0.00,WUHU216HW,2013-06-16 22:33:00,
2013-06-16 18:38:00,89.1,76.8,29.99,WNW,293,0.4,3.4,67,0.00,,,0.00,WUHU216HW,2013-06-16 22:38:00,
2013-06-16 18:43:00,89.1,76.8,30.00,WSW,248,0.4,2.2,67,0.00,,,0.00,WUHU216HW,2013-06-16 22:43:00,
2013-06-16 18:50:00,89.1,76.8,30.00,West,270,0.4,3.4,67,0.00,,,0.00,WUHU216HW,2013-06-16 22:50:00,
2013-06-16 18:55:00,89.1,77.2,30.01,WSW,248,1.6,3.4,68,0.00,,,0.00,WUHU216HW,2013-06-16 22:55:00,
2013-06-16 19:00:00,89.1,76.8,30.00,WSW,248,0.9,2.5,67,0.00,,,0.00,WUHU216HW,2013-06-16 23:00:00,
2013-06-16 19:05:00,89.3,77.0,30.00,NW,315,4.7,4.7,67,0.00,,,0.00,WUHU216HW,2013-06-16 23:05:00,
2013-06-16 19:10:00,88.9,76.6,30.00,WNW,293,1.1,5.4,67,0.00,,,0.00,WUHU216HW,2013-06-16 23:10:00,
2013-06-16 19:15:00,88.6,76.2,29.99,WNW,293,1.1,5.4,67,0.00,,,0.00,WUHU216HW,2013-06-16 23:15:00,
2013-06-16 19:21:00,88.2,76.3,29.99,NW,315,1.3,4.0,68,0.00,,,0.00,WUHU216HW,2013-06-16 23:21:00,
2013-06-16 19:26:00,87.8,76.4,29.99,WSW,248,0.9,4.0,69,0.00,,,0.00,WUHU216HW,2013-06-16 23:26:00,
2013-06-16 19:31:00,87.7,76.2,30.00,NW,315,1.8,3.4,69,0.00,,,0.00,WUHU216HW,2013-06-16 23:31:00,
2013-06-16 19:36:00,87.5,76.5,30.00,West,270,2.2,3.1,70,0.00,,,0.00,WUHU216HW,2013-06-16 23:36:00,
2013-06-16 19:41:00,87.5,76.5,30.01,West,270,0.2,3.1,70,0.00,,,0.00,WUHU216HW,2013-06-16 23:41:00,
2013-06-16 19:46:00,87.5,76.5,30.01,WNW,293,0.4,1.1,70,0.00,,,0.00,WUHU216HW,2013-06-16 23:46:00,
2013-06-16 19:51:00,87.3,76.4,30.00,NW,315,0.4,1.3,70,0.00,,,0.00,WUHU216HW,2013-06-16 23:51:00,
2013-06-16 19:56:00,87.3,76.4,30.01,WSW,248,0.4,1.3,70,0.00,,,0.00,WUHU216HW,2013-06-16 23:56:00,
2013-06-16 20:01:00,87.1,76.6,30.00,WSW,248,0.7,1.3,71,0.00,,,0.00,WUHU216HW,2013-06-17 00:01:00,
2013-06-16 20:06:00,87.1,76.6,30.01,WNW,293,0.9,1.8,71,0.00,,,0.00,WUHU216HW,2013-06-17 00:06:00,
2013-06-16 20:11:00,86.9,76.5,30.01,NNW,338,0.4,1.8,71,0.00,,,0.00,WUHU216HW,2013-06-17 00:11:00,
2013-06-16 20:16:00,86.8,76.3,30.01,NNW,338,0.9,2.0,71,0.00,,,0.00,WUHU216HW,2013-06-17 00:16:00,
2013-06-16 20:22:00,86.8,76.3,30.01,NNW,338,0.0,1.3,71,0.00,,,0.00,WUHU216HW,2013-06-17 00:22:00,
2013-06-16 20:27:00,86.8,76.3,30.02,NNW,338,0.7,0.9,71,0.00,,,0.00,WUHU216HW,2013-06-17 00:27:00,
2013-06-16 20:32:00,86.6,76.5,30.01,NW,315,0.4,1.3,72,0.00,,,0.00,WUHU216HW,2013-06-17 00:32:00,
2013-06-16 20:37:00,86.6,76.5,30.01,SW,225,0.0,1.3,72,0.00,,,0.00,WUHU216HW,2013-06-17 00:37:00,
2013-06-16 20:42:00,86.4,76.3,30.02,North,0,1.3,1.3,72,0.00,,,0.00,WUHU216HW,2013-06-17 00:42:00,
2013-06-16 20:47:00,86.4,76.3,30.02,North,0,0.0,1.3,72,0.00,,,0.00,WUHU216HW,2013-06-17 00:47:00,
2013-06-16 20:52:00,86.2,76.2,30.02,NNE,23,0.7,1.1,72,0.00,,,0.00,WUHU216HW,2013-06-17 00:52:00,
2013-06-16 20:57:00,85.9,75.9,30.03,ESE,113,1.1,2.2,72,0.00,,,0.00,WUHU216HW,2013-06-17 00:57:00,
2013-06-16 21:03:00,85.3,75.3,30.02,ESE,113,1.1,4.0,72,0.00,,,0.00,WUHU216HW,2013-06-17 01:03:00,
2013-06-16 21:08:00,85.0,75.0,30.02,ESE,113,0.2,4.0,72,0.00,,,0.00,WUHU216HW,2013-06-17 01:08:00,
2013-06-16 21:13:00,85.0,75.0,30.02,ESE,113,0.4,1.8,72,0.00,,,0.00,WUHU216HW,2013-06-17 01:13:00,
2013-06-16 21:18:00,85.0,75.0,30.02,North,0,1.1,1.1,72,0.00,,,0.00,WUHU216HW,2013-06-17 01:18:00,
2013-06-16 21:23:00,84.8,74.8,30.02,NNW,338,0.0,1.1,72,0.00,,,0.00,WUHU216HW,2013-06-17 01:23:00,
2013-06-16 21:28:00,84.8,74.8,30.02,West,270,0.0,0.7,72,0.00,,,0.00,WUHU216HW,2013-06-17 01:28:00,
2013-06-16 21:33:00,84.8,74.8,30.03,West,270,0.0,0.7,72,0.00,,,0.00,WUHU216HW,2013-06-17 01:33:00,
2013-06-16 21:38:00,84.8,74.8,30.03,West,270,0.0,0.4,72,0.00,,,0.00,WUHU216HW,2013-06-17 01:38:00,
2013-06-16 21:43:00,84.8,74.8,30.03,NNW,338,0.7,0.7,72,0.00,,,0.00,WUHU216HW,2013-06-17 01:43:00,
2013-06-16 21:48:00,84.8,74.8,30.04,NNW,338,0.0,0.7,72,0.00,,,0.00,WUHU216HW,2013-06-17 01:48:00,
2013-06-16 21:54:00,84.6,74.6,30.04,East,90,0.2,0.7,72,0.00,,,0.00,WUHU216HW,2013-06-17 01:54:00,
2013-06-16 21:59:00,84.8,74.8,30.04,East,90,0.0,0.2,72,0.00,,,0.00,WUHU216HW,2013-06-17 01:59:00,
2013-06-16 22:04:00,84.6,74.6,30.04,ESE,113,0.2,0.2,72,0.00,,,0.00,WUHU216HW,2013-06-17 02:04:00,
2013-06-16 22:09:00,84.6,74.6,30.04,ESE,113,1.1,1.1,72,0.00,,,0.00,WUHU216HW,2013-06-17 02:09:00,
2013-06-16 22:14:00,84.6,74.6,30.05,SE,135,0.7,1.8,72,0.00,,,0.00,WUHU216HW,2013-06-17 02:14:00,
2013-06-16 22:19:00,84.4,74.4,30.05,SSE,158,0.4,3.1,72,0.00,,,0.00,WUHU216HW,2013-06-17 02:19:00,
2013-06-16 22:24:00,84.2,74.3,30.05,SE,135,0.4,3.1,72,0.00,,,0.00,WUHU216HW,2013-06-17 02:24:00,
2013-06-16 22:29:00,84.1,74.1,30.06,ESE,113,1.3,2.2,72,0.00,,,0.00,WUHU216HW,2013-06-17 02:29:00,
2013-06-16 22:35:00,84.1,74.1,30.06,ESE,113,1.1,3.1,72,0.00,,,0.00,WUHU216HW,2013-06-17 02:35:00,
2013-06-16 22:40:00,84.1,74.1,30.06,SE,135,1.3,3.1,72,0.00,,,0.00,WUHU216HW,2013-06-17 02:40:00,
2013-06-16 22:45:00,83.9,73.9,30.06,SE,135,2.5,3.4,72,0.00,,,0.00,WUHU216HW,2013-06-17 02:45:00,
2013-06-16 22:50:00,83.7,73.7,30.06,SE,135,1.3,3.4,72,0.00,,,0.00,WUHU216HW,2013-06-17 02:50:00,
2013-06-16 22:55:00,83.5,73.5,30.06,SE,135,1.6,2.5,72,0.00,,,0.00,WUHU216HW,2013-06-17 02:55:00,
2013-06-16 23:00:00,83.5,73.5,30.06,SSE,158,1.8,2.0,72,0.00,,,0.00,WUHU216HW,2013-06-17 03:00:00,
2013-06-16 23:05:00,83.5,73.5,30.06,SE,135,1.3,1.8,72,0.00,,,0.00,WUHU216HW,2013-06-17 03:05:00,
2013-06-16 23:10:00,83.5,73.9,30.06,SE,135,0.9,2.5,73,0.00,,,0.00,WUHU216HW,2013-06-17 03:10:00,
2013-06-16 23:15:00,83.3,75.0,30.06,ESE,113,1.1,2.7,76,0.01,,,0.02,WUHU216HW,2013-06-17 03:15:00,
2013-06-16 23:21:00,82.4,75.3,30.06,South,180,1.6,4.0,79,0.01,,,0.02,WUHU216HW,2013-06-17 03:21:00,
2013-06-16 23:26:00,81.7,75.1,30.07,SSE,158,4.7,4.7,80,0.01,,,0.02,WUHU216HW,2013-06-17 03:26:00,
2013-06-16 23:31:00,81.4,74.4,30.06,SSE,158,9.2,9.2,79,0.01,,,0.02,WUHU216HW,2013-06-17 03:31:00,
2013-06-16 23:35:00,81.0,73.5,30.07,South,180,4.0,4.0,78,0.03,,,0.04,WUHU216HW,2013-06-17 03:35:00,
2013-06-16 23:36:00,81.0,73.5,30.07,South,180,4.0,9.2,78,0.03,,,0.04,WUHU216HW,2013-06-17 03:36:00,
2013-06-16 23:41:00,81.0,73.5,30.07,South,180,4.0,4.7,78,0.03,,,0.04,WUHU216HW,2013-06-17 03:41:00,